sensor_id;sensor_type;location;lat;lon;timestamp;P1;durP1;ratioP1;P2;durP2;ratioP2
78856;SDS011;68207;50.078;19.936;2024-01-06T00:02:03;44.00;;;25.30;;
78856;SDS011;68207;50.078;19.936;2024-01-06T00:04:29;47.00;;;24.70;;
78856;SDS011;68207;50.078;19.936;2024-01-06T00:06:54;47.90;;;25.10;;
78856;SDS011;68207;50.078;19.936;2024-01-06T00:09:19;47.30;;;26.00;;
78856;SDS011;68207;50.078;19.936;2024-01-06T00:11:45;52.10;;;27.30;;
78856;SDS011;68207;50.078;19.936;2024-01-06T00:14:10;45.50;;;25.70;;
78856;SDS011;68207;50.078;19.936;2024-01-06T00:16:35;53.80;;;26.80;;
78856;SDS011;68207;50.078;19.936;2024-01-06T00:19:01;53.50;;;28.90;;
78856;SDS011;68207;50.078;19.936;2024-01-06T00:21:27;52.50;;;27.00;;
78856;SDS011;68207;50.078;19.936;2024-01-06T00:23:52;57.50;;;27.90;;
78856;SDS011;68207;50.078;19.936;2024-01-06T00:26:18;49.40;;;27.40;;
78856;SDS011;68207;50.078;19.936;2024-01-06T00:28:43;49.30;;;27.10;;
78856;SDS011;68207;50.078;19.936;2024-01-06T00:31:08;49.00;;;27.10;;
78856;SDS011;68207;50.078;19.936;2024-01-06T00:33:33;53.40;;;28.00;;
78856;SDS011;68207;50.078;19.936;2024-01-06T00:35:59;56.20;;;27.40;;
78856;SDS011;68207;50.078;19.936;2024-01-06T00:38:24;55.10;;;29.60;;
78856;SDS011;68207;50.078;19.936;2024-01-06T00:40:49;57.30;;;27.70;;
78856;SDS011;68207;50.078;19.936;2024-01-06T00:43:14;55.60;;;26.40;;
78856;SDS011;68207;50.078;19.936;2024-01-06T00:45:40;54.40;;;27.60;;
78856;SDS011;68207;50.078;19.936;2024-01-06T00:48:05;57.30;;;28.30;;
78856;SDS011;68207;50.078;19.936;2024-01-06T00:50:30;56.40;;;28.50;;
78856;SDS011;68207;50.078;19.936;2024-01-06T00:52:56;60.20;;;29.30;;
78856;SDS011;68207;50.078;19.936;2024-01-06T00:55:21;55.40;;;29.10;;
78856;SDS011;68207;50.078;19.936;2024-01-06T00:57:46;52.90;;;28.80;;
78856;SDS011;68207;50.078;19.936;2024-01-06T01:00:12;59.90;;;28.90;;
78856;SDS011;68207;50.078;19.936;2024-01-06T01:02:38;60.60;;;29.60;;
78856;SDS011;68207;50.078;19.936;2024-01-06T01:05:03;58.80;;;29.10;;
78856;SDS011;68207;50.078;19.936;2024-01-06T01:07:28;57.10;;;29.60;;
78856;SDS011;68207;50.078;19.936;2024-01-06T01:09:53;52.40;;;27.50;;
78856;SDS011;68207;50.078;19.936;2024-01-06T01:12:19;58.40;;;29.20;;
78856;SDS011;68207;50.078;19.936;2024-01-06T01:14:44;55.60;;;29.60;;
78856;SDS011;68207;50.078;19.936;2024-01-06T01:17:09;50.20;;;29.60;;
78856;SDS011;68207;50.078;19.936;2024-01-06T01:19:34;56.00;;;29.30;;
78856;SDS011;68207;50.078;19.936;2024-01-06T01:22:00;54.40;;;29.50;;
78856;SDS011;68207;50.078;19.936;2024-01-06T01:24:25;53.20;;;28.00;;
78856;SDS011;68207;50.078;19.936;2024-01-06T01:26:51;53.10;;;28.90;;
78856;SDS011;68207;50.078;19.936;2024-01-06T01:29:16;52.30;;;27.10;;
78856;SDS011;68207;50.078;19.936;2024-01-06T01:31:41;52.70;;;27.80;;
78856;SDS011;68207;50.078;19.936;2024-01-06T01:34:07;53.60;;;28.20;;
78856;SDS011;68207;50.078;19.936;2024-01-06T01:36:32;54.50;;;28.40;;
78856;SDS011;68207;50.078;19.936;2024-01-06T01:38:58;53.40;;;29.30;;
78856;SDS011;68207;50.078;19.936;2024-01-06T01:41:23;52.40;;;27.90;;
78856;SDS011;68207;50.078;19.936;2024-01-06T01:43:48;57.60;;;29.60;;
78856;SDS011;68207;50.078;19.936;2024-01-06T01:46:13;53.40;;;28.90;;
78856;SDS011;68207;50.078;19.936;2024-01-06T01:48:38;55.60;;;29.60;;
78856;SDS011;68207;50.078;19.936;2024-01-06T01:51:04;57.00;;;29.10;;
78856;SDS011;68207;50.078;19.936;2024-01-06T01:53:30;58.50;;;27.90;;
78856;SDS011;68207;50.078;19.936;2024-01-06T01:55:56;52.00;;;27.20;;
78856;SDS011;68207;50.078;19.936;2024-01-06T01:58:22;57.70;;;29.40;;
78856;SDS011;68207;50.078;19.936;2024-01-06T02:00:47;53.80;;;28.50;;
78856;SDS011;68207;50.078;19.936;2024-01-06T02:03:12;54.50;;;30.40;;
78856;SDS011;68207;50.078;19.936;2024-01-06T02:05:38;53.80;;;28.00;;
78856;SDS011;68207;50.078;19.936;2024-01-06T02:08:03;52.90;;;29.20;;
78856;SDS011;68207;50.078;19.936;2024-01-06T02:10:28;55.00;;;28.80;;
78856;SDS011;68207;50.078;19.936;2024-01-06T02:12:54;54.70;;;29.20;;
78856;SDS011;68207;50.078;19.936;2024-01-06T02:15:19;56.00;;;28.80;;
78856;SDS011;68207;50.078;19.936;2024-01-06T02:17:44;54.60;;;29.20;;
78856;SDS011;68207;50.078;19.936;2024-01-06T02:20:10;48.60;;;27.50;;
78856;SDS011;68207;50.078;19.936;2024-01-06T02:22:36;53.00;;;29.00;;
78856;SDS011;68207;50.078;19.936;2024-01-06T02:25:02;50.30;;;28.90;;
78856;SDS011;68207;50.078;19.936;2024-01-06T02:27:27;55.00;;;29.70;;
78856;SDS011;68207;50.078;19.936;2024-01-06T02:29:53;51.90;;;29.00;;
78856;SDS011;68207;50.078;19.936;2024-01-06T02:32:18;52.30;;;28.00;;
78856;SDS011;68207;50.078;19.936;2024-01-06T02:34:43;58.90;;;28.40;;
78856;SDS011;68207;50.078;19.936;2024-01-06T02:37:08;51.60;;;28.80;;
78856;SDS011;68207;50.078;19.936;2024-01-06T02:39:34;55.70;;;29.80;;
78856;SDS011;68207;50.078;19.936;2024-01-06T02:41:59;52.60;;;29.80;;
78856;SDS011;68207;50.078;19.936;2024-01-06T02:44:24;50.30;;;29.20;;
78856;SDS011;68207;50.078;19.936;2024-01-06T02:46:49;49.00;;;28.30;;
78856;SDS011;68207;50.078;19.936;2024-01-06T02:49:14;53.60;;;28.60;;
78856;SDS011;68207;50.078;19.936;2024-01-06T02:51:40;47.30;;;27.30;;
78856;SDS011;68207;50.078;19.936;2024-01-06T02:54:05;49.50;;;26.90;;
78856;SDS011;68207;50.078;19.936;2024-01-06T02:56:30;46.60;;;26.30;;
78856;SDS011;68207;50.078;19.936;2024-01-06T02:58:55;47.40;;;27.70;;
78856;SDS011;68207;50.078;19.936;2024-01-06T03:01:21;47.60;;;27.50;;
78856;SDS011;68207;50.078;19.936;2024-01-06T03:03:46;45.70;;;26.80;;
78856;SDS011;68207;50.078;19.936;2024-01-06T03:06:11;45.20;;;25.90;;
78856;SDS011;68207;50.078;19.936;2024-01-06T03:08:36;52.80;;;27.30;;
78856;SDS011;68207;50.078;19.936;2024-01-06T03:11:02;44.10;;;25.70;;
78856;SDS011;68207;50.078;19.936;2024-01-06T03:13:28;49.50;;;27.00;;
78856;SDS011;68207;50.078;19.936;2024-01-06T03:15:54;49.50;;;26.30;;
78856;SDS011;68207;50.078;19.936;2024-01-06T03:18:19;48.50;;;26.40;;
78856;SDS011;68207;50.078;19.936;2024-01-06T03:20:44;45.20;;;24.80;;
78856;SDS011;68207;50.078;19.936;2024-01-06T03:23:09;46.40;;;25.00;;
78856;SDS011;68207;50.078;19.936;2024-01-06T03:25:35;46.40;;;25.50;;
78856;SDS011;68207;50.078;19.936;2024-01-06T03:28:00;46.20;;;25.10;;
78856;SDS011;68207;50.078;19.936;2024-01-06T03:30:25;43.00;;;25.00;;
78856;SDS011;68207;50.078;19.936;2024-01-06T03:32:51;46.20;;;26.30;;
78856;SDS011;68207;50.078;19.936;2024-01-06T03:35:16;41.30;;;24.80;;
78856;SDS011;68207;50.078;19.936;2024-01-06T03:37:43;42.50;;;23.80;;
78856;SDS011;68207;50.078;19.936;2024-01-06T03:40:08;43.50;;;24.10;;
78856;SDS011;68207;50.078;19.936;2024-01-06T03:42:33;44.10;;;24.70;;
78856;SDS011;68207;50.078;19.936;2024-01-06T03:44:59;47.20;;;24.90;;
78856;SDS011;68207;50.078;19.936;2024-01-06T03:47:24;46.10;;;25.80;;
78856;SDS011;68207;50.078;19.936;2024-01-06T03:49:49;42.90;;;24.30;;
78856;SDS011;68207;50.078;19.936;2024-01-06T03:52:14;46.30;;;26.10;;
78856;SDS011;68207;50.078;19.936;2024-01-06T03:54:40;45.10;;;26.00;;
78856;SDS011;68207;50.078;19.936;2024-01-06T03:57:05;44.60;;;24.70;;
78856;SDS011;68207;50.078;19.936;2024-01-06T03:59:30;44.80;;;24.20;;
78856;SDS011;68207;50.078;19.936;2024-01-06T04:01:55;45.80;;;25.90;;
78856;SDS011;68207;50.078;19.936;2024-01-06T04:04:21;39.90;;;23.80;;
78856;SDS011;68207;50.078;19.936;2024-01-06T04:06:46;42.20;;;25.20;;
78856;SDS011;68207;50.078;19.936;2024-01-06T04:09:11;42.30;;;25.20;;
78856;SDS011;68207;50.078;19.936;2024-01-06T04:11:36;41.70;;;24.30;;
78856;SDS011;68207;50.078;19.936;2024-01-06T04:14:02;44.10;;;25.10;;
78856;SDS011;68207;50.078;19.936;2024-01-06T04:16:27;39.90;;;25.10;;
78856;SDS011;68207;50.078;19.936;2024-01-06T04:18:53;43.50;;;25.60;;
78856;SDS011;68207;50.078;19.936;2024-01-06T04:21:18;39.00;;;23.30;;
78856;SDS011;68207;50.078;19.936;2024-01-06T04:23:43;41.70;;;25.10;;
78856;SDS011;68207;50.078;19.936;2024-01-06T04:26:08;42.10;;;24.50;;
78856;SDS011;68207;50.078;19.936;2024-01-06T04:28:34;43.80;;;25.40;;
78856;SDS011;68207;50.078;19.936;2024-01-06T04:30:59;43.80;;;25.00;;
78856;SDS011;68207;50.078;19.936;2024-01-06T04:33:24;41.30;;;24.30;;
78856;SDS011;68207;50.078;19.936;2024-01-06T04:35:49;40.70;;;24.50;;
78856;SDS011;68207;50.078;19.936;2024-01-06T04:38:15;43.50;;;25.10;;
78856;SDS011;68207;50.078;19.936;2024-01-06T04:40:40;41.80;;;23.60;;
78856;SDS011;68207;50.078;19.936;2024-01-06T04:43:05;42.70;;;24.30;;
78856;SDS011;68207;50.078;19.936;2024-01-06T04:45:31;45.70;;;24.80;;
78856;SDS011;68207;50.078;19.936;2024-01-06T04:47:56;40.50;;;23.50;;
78856;SDS011;68207;50.078;19.936;2024-01-06T04:50:21;43.20;;;23.70;;
78856;SDS011;68207;50.078;19.936;2024-01-06T04:52:46;39.40;;;23.40;;
78856;SDS011;68207;50.078;19.936;2024-01-06T04:55:12;40.90;;;24.80;;
78856;SDS011;68207;50.078;19.936;2024-01-06T04:57:37;36.60;;;22.30;;
78856;SDS011;68207;50.078;19.936;2024-01-06T05:00:03;41.20;;;23.10;;
78856;SDS011;68207;50.078;19.936;2024-01-06T05:02:28;40.40;;;23.50;;
78856;SDS011;68207;50.078;19.936;2024-01-06T05:04:54;42.50;;;24.30;;
78856;SDS011;68207;50.078;19.936;2024-01-06T05:07:19;43.00;;;23.80;;
78856;SDS011;68207;50.078;19.936;2024-01-06T05:09:44;38.50;;;24.00;;
78856;SDS011;68207;50.078;19.936;2024-01-06T05:12:09;41.30;;;24.40;;
78856;SDS011;68207;50.078;19.936;2024-01-06T05:14:35;42.20;;;23.70;;
78856;SDS011;68207;50.078;19.936;2024-01-06T05:17:00;46.70;;;25.40;;
78856;SDS011;68207;50.078;19.936;2024-01-06T05:19:25;40.70;;;24.30;;
78856;SDS011;68207;50.078;19.936;2024-01-06T05:21:50;43.10;;;24.90;;
78856;SDS011;68207;50.078;19.936;2024-01-06T05:24:16;41.20;;;23.60;;
78856;SDS011;68207;50.078;19.936;2024-01-06T05:26:42;39.60;;;23.30;;
78856;SDS011;68207;50.078;19.936;2024-01-06T05:29:07;41.30;;;23.30;;
78856;SDS011;68207;50.078;19.936;2024-01-06T05:31:32;43.30;;;23.70;;
78856;SDS011;68207;50.078;19.936;2024-01-06T05:33:57;36.50;;;23.50;;
78856;SDS011;68207;50.078;19.936;2024-01-06T05:36:23;37.90;;;22.00;;
78856;SDS011;68207;50.078;19.936;2024-01-06T05:38:48;38.00;;;23.20;;
78856;SDS011;68207;50.078;19.936;2024-01-06T05:41:13;44.00;;;25.60;;
78856;SDS011;68207;50.078;19.936;2024-01-06T05:43:38;42.00;;;24.10;;
78856;SDS011;68207;50.078;19.936;2024-01-06T05:46:04;37.70;;;22.60;;
78856;SDS011;68207;50.078;19.936;2024-01-06T05:48:29;41.10;;;23.60;;
78856;SDS011;68207;50.078;19.936;2024-01-06T05:50:54;39.50;;;23.20;;
78856;SDS011;68207;50.078;19.936;2024-01-06T05:53:19;38.90;;;23.30;;
78856;SDS011;68207;50.078;19.936;2024-01-06T05:55:45;37.60;;;22.60;;
78856;SDS011;68207;50.078;19.936;2024-01-06T05:58:10;39.20;;;24.10;;
78856;SDS011;68207;50.078;19.936;2024-01-06T06:00:35;40.10;;;24.30;;
78856;SDS011;68207;50.078;19.936;2024-01-06T06:03:00;37.20;;;22.80;;
78856;SDS011;68207;50.078;19.936;2024-01-06T06:05:26;40.20;;;23.40;;
78856;SDS011;68207;50.078;19.936;2024-01-06T06:07:51;37.80;;;22.50;;
78856;SDS011;68207;50.078;19.936;2024-01-06T06:10:17;35.50;;;21.70;;
78856;SDS011;68207;50.078;19.936;2024-01-06T06:12:43;38.40;;;21.80;;
78856;SDS011;68207;50.078;19.936;2024-01-06T06:15:09;34.20;;;21.30;;
78856;SDS011;68207;50.078;19.936;2024-01-06T06:17:34;34.80;;;22.20;;
78856;SDS011;68207;50.078;19.936;2024-01-06T06:19:59;37.70;;;21.40;;
78856;SDS011;68207;50.078;19.936;2024-01-06T06:22:25;36.70;;;21.60;;
78856;SDS011;68207;50.078;19.936;2024-01-06T06:24:54;33.60;;;21.10;;
78856;SDS011;68207;50.078;19.936;2024-01-06T06:27:20;34.70;;;21.20;;
78856;SDS011;68207;50.078;19.936;2024-01-06T06:29:45;36.00;;;22.00;;
78856;SDS011;68207;50.078;19.936;2024-01-06T06:32:10;35.20;;;20.90;;
78856;SDS011;68207;50.078;19.936;2024-01-06T06:34:35;37.50;;;22.10;;
78856;SDS011;68207;50.078;19.936;2024-01-06T06:37:01;35.60;;;22.10;;
78856;SDS011;68207;50.078;19.936;2024-01-06T06:39:26;34.20;;;21.60;;
78856;SDS011;68207;50.078;19.936;2024-01-06T06:41:52;35.50;;;20.90;;
78856;SDS011;68207;50.078;19.936;2024-01-06T06:44:17;37.20;;;20.70;;
78856;SDS011;68207;50.078;19.936;2024-01-06T06:46:42;34.50;;;20.60;;
78856;SDS011;68207;50.078;19.936;2024-01-06T06:49:08;33.80;;;20.00;;
78856;SDS011;68207;50.078;19.936;2024-01-06T06:51:33;34.90;;;20.90;;
78856;SDS011;68207;50.078;19.936;2024-01-06T06:53:58;36.00;;;20.30;;
78856;SDS011;68207;50.078;19.936;2024-01-06T06:56:23;33.10;;;19.60;;
78856;SDS011;68207;50.078;19.936;2024-01-06T06:58:49;30.70;;;20.10;;
78856;SDS011;68207;50.078;19.936;2024-01-06T07:01:14;35.80;;;20.60;;
78856;SDS011;68207;50.078;19.936;2024-01-06T07:03:40;34.60;;;20.80;;
78856;SDS011;68207;50.078;19.936;2024-01-06T07:06:05;32.80;;;20.10;;
78856;SDS011;68207;50.078;19.936;2024-01-06T07:08:30;35.00;;;19.80;;
78856;SDS011;68207;50.078;19.936;2024-01-06T07:10:56;31.40;;;20.00;;
78856;SDS011;68207;50.078;19.936;2024-01-06T07:13:21;33.60;;;19.60;;
78856;SDS011;68207;50.078;19.936;2024-01-06T07:15:46;33.40;;;20.20;;
78856;SDS011;68207;50.078;19.936;2024-01-06T07:18:12;32.80;;;20.00;;
78856;SDS011;68207;50.078;19.936;2024-01-06T07:20:37;33.20;;;20.90;;
78856;SDS011;68207;50.078;19.936;2024-01-06T07:23:02;34.20;;;20.20;;
78856;SDS011;68207;50.078;19.936;2024-01-06T07:25:28;29.30;;;19.90;;
78856;SDS011;68207;50.078;19.936;2024-01-06T07:27:53;32.40;;;19.80;;
78856;SDS011;68207;50.078;19.936;2024-01-06T07:30:18;37.80;;;19.50;;
78856;SDS011;68207;50.078;19.936;2024-01-06T07:32:43;30.00;;;18.30;;
78856;SDS011;68207;50.078;19.936;2024-01-06T07:35:09;29.60;;;18.80;;
78856;SDS011;68207;50.078;19.936;2024-01-06T07:37:34;32.60;;;19.20;;
78856;SDS011;68207;50.078;19.936;2024-01-06T07:39:59;33.50;;;20.20;;
78856;SDS011;68207;50.078;19.936;2024-01-06T07:42:25;34.50;;;19.40;;
78856;SDS011;68207;50.078;19.936;2024-01-06T07:44:50;31.30;;;19.30;;
78856;SDS011;68207;50.078;19.936;2024-01-06T07:47:15;29.80;;;19.00;;
78856;SDS011;68207;50.078;19.936;2024-01-06T07:49:40;31.00;;;19.50;;
78856;SDS011;68207;50.078;19.936;2024-01-06T07:52:06;31.80;;;21.30;;
78856;SDS011;68207;50.078;19.936;2024-01-06T07:54:31;30.40;;;19.10;;
78856;SDS011;68207;50.078;19.936;2024-01-06T07:56:56;34.10;;;19.50;;
78856;SDS011;68207;50.078;19.936;2024-01-06T07:59:22;33.10;;;21.30;;
78856;SDS011;68207;50.078;19.936;2024-01-06T08:01:47;32.90;;;19.80;;
78856;SDS011;68207;50.078;19.936;2024-01-06T08:04:12;30.00;;;19.90;;
78856;SDS011;68207;50.078;19.936;2024-01-06T08:06:37;32.90;;;20.10;;
78856;SDS011;68207;50.078;19.936;2024-01-06T08:09:03;32.80;;;20.10;;
78856;SDS011;68207;50.078;19.936;2024-01-06T08:11:28;29.40;;;18.90;;
78856;SDS011;68207;50.078;19.936;2024-01-06T08:13:54;32.60;;;20.00;;
78856;SDS011;68207;50.078;19.936;2024-01-06T08:16:19;30.60;;;20.50;;
78856;SDS011;68207;50.078;19.936;2024-01-06T08:18:44;32.10;;;20.00;;
78856;SDS011;68207;50.078;19.936;2024-01-06T08:21:10;29.10;;;19.10;;
78856;SDS011;68207;50.078;19.936;2024-01-06T08:23:35;30.20;;;19.90;;
78856;SDS011;68207;50.078;19.936;2024-01-06T08:26:01;31.90;;;20.80;;
78856;SDS011;68207;50.078;19.936;2024-01-06T08:28:26;31.50;;;20.90;;
78856;SDS011;68207;50.078;19.936;2024-01-06T08:30:51;31.60;;;18.70;;
78856;SDS011;68207;50.078;19.936;2024-01-06T08:33:17;31.40;;;19.40;;
78856;SDS011;68207;50.078;19.936;2024-01-06T08:35:42;34.40;;;20.50;;
78856;SDS011;68207;50.078;19.936;2024-01-06T08:38:08;37.30;;;21.60;;
78856;SDS011;68207;50.078;19.936;2024-01-06T08:40:33;28.80;;;19.30;;
78856;SDS011;68207;50.078;19.936;2024-01-06T08:42:59;35.80;;;20.60;;
78856;SDS011;68207;50.078;19.936;2024-01-06T08:45:24;32.90;;;20.30;;
78856;SDS011;68207;50.078;19.936;2024-01-06T08:47:49;30.00;;;19.40;;
78856;SDS011;68207;50.078;19.936;2024-01-06T08:50:14;30.40;;;19.80;;
78856;SDS011;68207;50.078;19.936;2024-01-06T08:52:39;30.30;;;20.00;;
78856;SDS011;68207;50.078;19.936;2024-01-06T08:55:05;27.00;;;19.10;;
78856;SDS011;68207;50.078;19.936;2024-01-06T08:57:30;31.40;;;19.40;;
78856;SDS011;68207;50.078;19.936;2024-01-06T08:59:55;30.20;;;19.20;;
78856;SDS011;68207;50.078;19.936;2024-01-06T09:02:21;33.20;;;21.00;;
78856;SDS011;68207;50.078;19.936;2024-01-06T09:04:46;32.80;;;19.80;;
78856;SDS011;68207;50.078;19.936;2024-01-06T09:07:11;31.60;;;20.20;;
78856;SDS011;68207;50.078;19.936;2024-01-06T09:09:37;30.70;;;19.50;;
78856;SDS011;68207;50.078;19.936;2024-01-06T09:12:02;29.70;;;19.40;;
78856;SDS011;68207;50.078;19.936;2024-01-06T09:14:28;31.10;;;19.40;;
78856;SDS011;68207;50.078;19.936;2024-01-06T09:16:53;29.40;;;20.20;;
78856;SDS011;68207;50.078;19.936;2024-01-06T09:19:19;33.30;;;20.30;;
78856;SDS011;68207;50.078;19.936;2024-01-06T09:21:44;32.60;;;19.80;;
78856;SDS011;68207;50.078;19.936;2024-01-06T09:24:09;30.10;;;19.10;;
78856;SDS011;68207;50.078;19.936;2024-01-06T09:26:35;30.50;;;19.70;;
78856;SDS011;68207;50.078;19.936;2024-01-06T09:29:00;30.90;;;20.30;;
78856;SDS011;68207;50.078;19.936;2024-01-06T09:31:26;32.10;;;19.70;;
78856;SDS011;68207;50.078;19.936;2024-01-06T09:33:51;32.10;;;20.30;;
78856;SDS011;68207;50.078;19.936;2024-01-06T09:36:16;29.60;;;19.70;;
78856;SDS011;68207;50.078;19.936;2024-01-06T09:38:42;32.60;;;21.10;;
78856;SDS011;68207;50.078;19.936;2024-01-06T09:41:08;33.40;;;19.90;;
78856;SDS011;68207;50.078;19.936;2024-01-06T09:43:33;35.00;;;20.00;;
78856;SDS011;68207;50.078;19.936;2024-01-06T09:46:05;29.80;;;20.20;;
78856;SDS011;68207;50.078;19.936;2024-01-06T09:48:30;30.50;;;19.40;;
78856;SDS011;68207;50.078;19.936;2024-01-06T09:50:58;30.20;;;20.00;;
78856;SDS011;68207;50.078;19.936;2024-01-06T09:53:28;31.80;;;20.00;;
78856;SDS011;68207;50.078;19.936;2024-01-06T09:55:54;30.70;;;19.70;;
78856;SDS011;68207;50.078;19.936;2024-01-06T09:58:20;29.50;;;20.00;;
78856;SDS011;68207;50.078;19.936;2024-01-06T10:00:46;32.60;;;19.20;;
78856;SDS011;68207;50.078;19.936;2024-01-06T10:03:13;34.40;;;20.60;;
78856;SDS011;68207;50.078;19.936;2024-01-06T10:05:38;34.10;;;20.20;;
78856;SDS011;68207;50.078;19.936;2024-01-06T10:08:04;33.80;;;21.20;;
78856;SDS011;68207;50.078;19.936;2024-01-06T10:10:29;30.60;;;20.10;;
78856;SDS011;68207;50.078;19.936;2024-01-06T10:12:54;32.10;;;21.50;;
78856;SDS011;68207;50.078;19.936;2024-01-06T10:15:20;30.40;;;20.60;;
78856;SDS011;68207;50.078;19.936;2024-01-06T10:17:46;32.90;;;20.60;;
78856;SDS011;68207;50.078;19.936;2024-01-06T10:20:11;31.50;;;20.00;;
78856;SDS011;68207;50.078;19.936;2024-01-06T10:22:37;32.40;;;19.90;;
78856;SDS011;68207;50.078;19.936;2024-01-06T10:25:04;33.40;;;20.50;;
78856;SDS011;68207;50.078;19.936;2024-01-06T10:27:29;32.30;;;20.80;;
78856;SDS011;68207;50.078;19.936;2024-01-06T10:29:55;32.80;;;20.10;;
78856;SDS011;68207;50.078;19.936;2024-01-06T10:32:20;33.90;;;21.30;;
78856;SDS011;68207;50.078;19.936;2024-01-06T10:34:45;31.40;;;21.20;;
78856;SDS011;68207;50.078;19.936;2024-01-06T10:37:11;33.10;;;21.10;;
78856;SDS011;68207;50.078;19.936;2024-01-06T10:39:36;31.20;;;19.80;;
78856;SDS011;68207;50.078;19.936;2024-01-06T10:42:01;33.60;;;20.70;;
78856;SDS011;68207;50.078;19.936;2024-01-06T10:44:28;33.00;;;21.50;;
78856;SDS011;68207;50.078;19.936;2024-01-06T10:46:54;33.20;;;21.00;;
78856;SDS011;68207;50.078;19.936;2024-01-06T10:49:19;33.50;;;21.60;;
78856;SDS011;68207;50.078;19.936;2024-01-06T10:51:46;35.40;;;22.30;;
78856;SDS011;68207;50.078;19.936;2024-01-06T10:54:13;33.30;;;20.40;;
78856;SDS011;68207;50.078;19.936;2024-01-06T10:56:39;30.10;;;20.50;;
78856;SDS011;68207;50.078;19.936;2024-01-06T10:59:04;32.50;;;21.20;;
78856;SDS011;68207;50.078;19.936;2024-01-06T11:01:30;32.60;;;21.00;;
78856;SDS011;68207;50.078;19.936;2024-01-06T11:03:56;31.10;;;20.00;;
78856;SDS011;68207;50.078;19.936;2024-01-06T11:06:22;33.10;;;20.40;;
78856;SDS011;68207;50.078;19.936;2024-01-06T11:11:16;33.40;;;20.90;;
78856;SDS011;68207;50.078;19.936;2024-01-06T11:13:42;29.90;;;19.40;;
78856;SDS011;68207;50.078;19.936;2024-01-06T11:16:10;31.70;;;19.50;;
78856;SDS011;68207;50.078;19.936;2024-01-06T11:18:36;30.20;;;19.70;;
78856;SDS011;68207;50.078;19.936;2024-01-06T11:21:18;30.00;;;18.70;;
78856;SDS011;68207;50.078;19.936;2024-01-06T11:24:03;30.50;;;19.60;;
78856;SDS011;68207;50.078;19.936;2024-01-06T11:26:29;32.80;;;20.80;;
78856;SDS011;68207;50.078;19.936;2024-01-06T11:28:54;30.30;;;19.40;;
78856;SDS011;68207;50.078;19.936;2024-01-06T11:31:22;32.90;;;19.90;;
78856;SDS011;68207;50.078;19.936;2024-01-06T11:33:48;32.30;;;20.00;;
78856;SDS011;68207;50.078;19.936;2024-01-06T11:36:16;32.80;;;21.70;;
78856;SDS011;68207;50.078;19.936;2024-01-06T11:38:41;33.70;;;20.50;;
78856;SDS011;68207;50.078;19.936;2024-01-06T11:41:10;32.30;;;20.20;;
78856;SDS011;68207;50.078;19.936;2024-01-06T11:43:37;31.70;;;20.30;;
78856;SDS011;68207;50.078;19.936;2024-01-06T11:46:04;30.40;;;20.70;;
78856;SDS011;68207;50.078;19.936;2024-01-06T11:48:31;31.10;;;20.50;;
78856;SDS011;68207;50.078;19.936;2024-01-06T11:50:58;30.30;;;19.20;;
78856;SDS011;68207;50.078;19.936;2024-01-06T11:53:23;31.90;;;20.30;;
78856;SDS011;68207;50.078;19.936;2024-01-06T11:55:51;30.00;;;19.90;;
78856;SDS011;68207;50.078;19.936;2024-01-06T11:58:16;29.80;;;20.10;;
78856;SDS011;68207;50.078;19.936;2024-01-06T12:00:42;35.20;;;20.90;;
78856;SDS011;68207;50.078;19.936;2024-01-06T12:03:07;30.40;;;19.60;;
78856;SDS011;68207;50.078;19.936;2024-01-06T12:05:32;31.60;;;19.50;;
78856;SDS011;68207;50.078;19.936;2024-01-06T12:08:02;28.40;;;18.30;;
78856;SDS011;68207;50.078;19.936;2024-01-06T12:10:31;30.30;;;19.20;;
78856;SDS011;68207;50.078;19.936;2024-01-06T12:13:01;28.60;;;18.60;;
78856;SDS011;68207;50.078;19.936;2024-01-06T12:15:27;30.10;;;19.20;;
78856;SDS011;68207;50.078;19.936;2024-01-06T12:17:52;28.60;;;19.30;;
78856;SDS011;68207;50.078;19.936;2024-01-06T12:20:18;30.40;;;19.10;;
78856;SDS011;68207;50.078;19.936;2024-01-06T12:22:43;26.80;;;19.10;;
78856;SDS011;68207;50.078;19.936;2024-01-06T12:25:09;27.30;;;19.30;;
78856;SDS011;68207;50.078;19.936;2024-01-06T12:27:35;27.00;;;19.10;;
78856;SDS011;68207;50.078;19.936;2024-01-06T12:30:00;24.80;;;16.80;;
78856;SDS011;68207;50.078;19.936;2024-01-06T12:32:26;28.60;;;17.20;;
78856;SDS011;68207;50.078;19.936;2024-01-06T12:34:51;25.00;;;16.50;;
78856;SDS011;68207;50.078;19.936;2024-01-06T12:37:16;24.90;;;16.30;;
78856;SDS011;68207;50.078;19.936;2024-01-06T12:39:42;29.90;;;17.10;;
78856;SDS011;68207;50.078;19.936;2024-01-06T12:42:10;25.90;;;16.80;;
78856;SDS011;68207;50.078;19.936;2024-01-06T12:44:35;25.20;;;15.90;;
78856;SDS011;68207;50.078;19.936;2024-01-06T12:47:03;22.00;;;15.60;;
78856;SDS011;68207;50.078;19.936;2024-01-06T12:49:28;22.90;;;15.70;;
78856;SDS011;68207;50.078;19.936;2024-01-06T12:51:54;23.00;;;15.30;;
78856;SDS011;68207;50.078;19.936;2024-01-06T12:54:19;22.80;;;15.80;;
78856;SDS011;68207;50.078;19.936;2024-01-06T12:56:44;26.70;;;16.60;;
78856;SDS011;68207;50.078;19.936;2024-01-06T12:59:09;23.70;;;15.90;;
78856;SDS011;68207;50.078;19.936;2024-01-06T13:01:36;21.60;;;15.30;;
78856;SDS011;68207;50.078;19.936;2024-01-06T13:04:01;23.90;;;14.80;;
78856;SDS011;68207;50.078;19.936;2024-01-06T13:06:26;24.00;;;15.40;;
78856;SDS011;68207;50.078;19.936;2024-01-06T13:08:52;21.50;;;15.10;;
78856;SDS011;68207;50.078;19.936;2024-01-06T13:11:17;23.40;;;15.00;;
78856;SDS011;68207;50.078;19.936;2024-01-06T13:13:43;21.60;;;14.30;;
78856;SDS011;68207;50.078;19.936;2024-01-06T13:16:08;20.90;;;13.50;;
78856;SDS011;68207;50.078;19.936;2024-01-06T13:18:34;22.30;;;15.00;;
78856;SDS011;68207;50.078;19.936;2024-01-06T13:21:00;22.80;;;14.90;;
78856;SDS011;68207;50.078;19.936;2024-01-06T13:23:26;23.00;;;14.80;;
78856;SDS011;68207;50.078;19.936;2024-01-06T13:25:51;20.80;;;14.10;;
78856;SDS011;68207;50.078;19.936;2024-01-06T13:28:17;20.30;;;14.20;;
78856;SDS011;68207;50.078;19.936;2024-01-06T13:30:42;24.00;;;14.50;;
78856;SDS011;68207;50.078;19.936;2024-01-06T13:33:07;21.40;;;13.80;;
78856;SDS011;68207;50.078;19.936;2024-01-06T13:35:34;20.80;;;14.10;;
78856;SDS011;68207;50.078;19.936;2024-01-06T13:38:01;20.90;;;14.10;;
78856;SDS011;68207;50.078;19.936;2024-01-06T13:40:29;21.40;;;14.70;;
78856;SDS011;68207;50.078;19.936;2024-01-06T13:42:54;21.20;;;15.00;;
78856;SDS011;68207;50.078;19.936;2024-01-06T13:45:19;22.80;;;14.20;;
78856;SDS011;68207;50.078;19.936;2024-01-06T13:47:45;21.10;;;14.60;;
78856;SDS011;68207;50.078;19.936;2024-01-06T13:50:15;23.10;;;14.10;;
78856;SDS011;68207;50.078;19.936;2024-01-06T13:52:40;21.30;;;13.20;;
78856;SDS011;68207;50.078;19.936;2024-01-06T13:55:06;18.90;;;13.20;;
78856;SDS011;68207;50.078;19.936;2024-01-06T13:57:31;20.70;;;12.80;;
78856;SDS011;68207;50.078;19.936;2024-01-06T13:59:57;19.90;;;13.90;;
78856;SDS011;68207;50.078;19.936;2024-01-06T14:02:22;18.90;;;13.20;;